LAKE NATOMA (NIMBUS DAM) (NAT)

Elevation: 132' · AMERICAN R basin · Operator: US Bureau of Reclamation

Provisional data, subject to change.
Query executed Wednesday at 22:35:11   clock

Select a sensor type for a plot of data.
Note: Reservoir Flows are daily averages.

Earlier

Date RES ELE    STORAGE    RES CHG    OUTFLOW    INFLOW    SPILL    DIS PWR   
 FEET   AF   AF   CFS   CFS   CFS   CFS  
08/01/2016 124.10 8311 172 5033 5124 354 4613
08/02/2016 124.80 8661 350 4831 5011 681 4084
08/03/2016 123.28 7923 -738 4829 4462 0 4762
08/04/2016 122.97 7778 -145 4810 4742 0 4733
08/05/2016 122.73 7670 -108 4650 4599 0 4564
08/06/2016 124.08 8301 631 4602 4920 0 4516
08/07/2016 123.04 7810 -491 4574 4329 0 4488
08/08/2016 123.44 7998 188 4574 4673 0 4488
08/09/2016 123.56 8054 56 4567 4599 0 4488
08/10/2016 123.03 7805 -249 4543 4420 0 4487
08/11/2016 122.84 7719 -86 4335 4296 0 4282
08/12/2016 123.01 7796 77 4299 4342 0 4235
08/13/2016 121.64 7190 -606 4308 4006 0 4235
08/14/2016 120.60 6761 -429 4297 4085 0 4221
08/15/2016 121.99 7337 576 4051 4345 331 3644
08/16/2016 123.25 7909 572 3799 4091 0 3729
08/17/2016 123.27 7918 9 3693 3702 0 3627
08/18/2016 122.76 7683 -235 2683 2569 0 2617
08/19/2016 122.95 7769 86 2755 2803 0 2689
08/20/2016 123.68 8111 342 2340 2516 0 2274
08/21/2016 124.48 8501 390 2104 2305 0 2038
08/22/2016 124.06 8291 -210 2096 1993 0 2030
08/23/2016 123.09 7833 -458 2096 1869 0 2030
08/24/2016 122.64 7629 -204 2096 1996 0 2028
08/25/2016 123.32 7941 312 2080 2241 0 2005
08/26/2016 123.10 7838 -103 1856 1807 0 1781
08/27/2016 122.67 7643 -195 1880 1785 0 1805
08/28/2016 122.77 7688 45 1862 1888 0 1787
08/29/2016 122.92 7755 67 1877 1914 0 1802
08/30/2016 122.94 7764 9 1880 1888 0 1805
08/31/2016 -- -- -- -- -- -- --

Later | Latest

Warning! This data is preliminary and subject to revision.

Show NAT Map | Plot NAT Data | 1 Month NAT Data | Real-Time NAT Data | NAT Info